sensor_id;sensor_type;location;lat;lon;timestamp;P1;durP1;ratioP1;P2;durP2;ratioP2
11807;SDS011;5961;42.640;23.380;2023-05-15T00:00:30;5.03;;;4.50;;
11807;SDS011;5961;42.640;23.380;2023-05-15T00:02:57;4.70;;;4.23;;
11807;SDS011;5961;42.640;23.380;2023-05-15T00:05:24;4.90;;;4.00;;
11807;SDS011;5961;42.640;23.380;2023-05-15T00:07:52;5.60;;;4.10;;
11807;SDS011;5961;42.640;23.380;2023-05-15T00:10:18;5.00;;;4.50;;
11807;SDS011;5961;42.640;23.380;2023-05-15T00:12:45;4.77;;;4.13;;
11807;SDS011;5961;42.640;23.380;2023-05-15T00:15:12;3.07;;;2.77;;
11807;SDS011;5961;42.640;23.380;2023-05-15T00:17:38;4.30;;;3.57;;
11807;SDS011;5961;42.640;23.380;2023-05-15T00:20:05;4.30;;;3.90;;
11807;SDS011;5961;42.640;23.380;2023-05-15T00:22:34;4.50;;;3.83;;
11807;SDS011;5961;42.640;23.380;2023-05-15T00:25:02;5.37;;;4.47;;
11807;SDS011;5961;42.640;23.380;2023-05-15T00:27:29;4.20;;;3.80;;
11807;SDS011;5961;42.640;23.380;2023-05-15T00:29:55;4.67;;;4.07;;
11807;SDS011;5961;42.640;23.380;2023-05-15T00:32:22;5.53;;;4.27;;
11807;SDS011;5961;42.640;23.380;2023-05-15T00:34:49;5.53;;;3.83;;
11807;SDS011;5961;42.640;23.380;2023-05-15T00:37:15;4.83;;;4.33;;
11807;SDS011;5961;42.640;23.380;2023-05-15T00:39:42;5.90;;;4.53;;
11807;SDS011;5961;42.640;23.380;2023-05-15T00:42:10;5.23;;;4.60;;
11807;SDS011;5961;42.640;23.380;2023-05-15T00:44:37;5.70;;;4.30;;
11807;SDS011;5961;42.640;23.380;2023-05-15T00:47:06;7.63;;;4.63;;
11807;SDS011;5961;42.640;23.380;2023-05-15T00:49:35;6.53;;;5.20;;
11807;SDS011;5961;42.640;23.380;2023-05-15T00:52:03;5.03;;;4.40;;
11807;SDS011;5961;42.640;23.380;2023-05-15T00:54:32;5.23;;;4.23;;
11807;SDS011;5961;42.640;23.380;2023-05-15T00:56:59;5.40;;;4.50;;
11807;SDS011;5961;42.640;23.380;2023-05-15T00:59:28;12.90;;;5.03;;
11807;SDS011;5961;42.640;23.380;2023-05-15T01:01:56;4.80;;;4.23;;
11807;SDS011;5961;42.640;23.380;2023-05-15T01:04:23;5.40;;;4.23;;
11807;SDS011;5961;42.640;23.380;2023-05-15T01:06:50;6.40;;;5.00;;
11807;SDS011;5961;42.640;23.380;2023-05-15T01:09:18;5.57;;;4.70;;
11807;SDS011;5961;42.640;23.380;2023-05-15T01:11:45;7.80;;;4.63;;
11807;SDS011;5961;42.640;23.380;2023-05-15T01:14:15;5.10;;;4.27;;
11807;SDS011;5961;42.640;23.380;2023-05-15T01:16:43;5.87;;;4.53;;
11807;SDS011;5961;42.640;23.380;2023-05-15T01:19:10;5.40;;;4.33;;
11807;SDS011;5961;42.640;23.380;2023-05-15T01:27:41;5.27;;;4.57;;
11807;SDS011;5961;42.640;23.380;2023-05-15T01:30:11;5.37;;;4.87;;
11807;SDS011;5961;42.640;23.380;2023-05-15T01:32:45;6.07;;;4.70;;
11807;SDS011;5961;42.640;23.380;2023-05-15T01:35:18;5.67;;;4.93;;
11807;SDS011;5961;42.640;23.380;2023-05-15T01:37:48;5.30;;;4.80;;
11807;SDS011;5961;42.640;23.380;2023-05-15T01:40:20;5.43;;;4.93;;
11807;SDS011;5961;42.640;23.380;2023-05-15T01:42:53;5.50;;;4.97;;
11807;SDS011;5961;42.640;23.380;2023-05-15T01:45:20;5.87;;;5.20;;
11807;SDS011;5961;42.640;23.380;2023-05-15T01:47:49;5.80;;;4.93;;
11807;SDS011;5961;42.640;23.380;2023-05-15T01:50:19;6.20;;;4.97;;
11807;SDS011;5961;42.640;23.380;2023-05-15T01:52:48;5.50;;;4.83;;
11807;SDS011;5961;42.640;23.380;2023-05-15T01:55:17;6.23;;;5.30;;
11807;SDS011;5961;42.640;23.380;2023-05-15T01:57:44;5.70;;;5.10;;
11807;SDS011;5961;42.640;23.380;2023-05-15T02:00:15;7.40;;;5.00;;
11807;SDS011;5961;42.640;23.380;2023-05-15T02:02:43;8.87;;;5.80;;
11807;SDS011;5961;42.640;23.380;2023-05-15T02:05:11;9.27;;;6.57;;
11807;SDS011;5961;42.640;23.380;2023-05-15T02:07:39;8.40;;;7.17;;
11807;SDS011;5961;42.640;23.380;2023-05-15T02:10:07;8.23;;;7.03;;
11807;SDS011;5961;42.640;23.380;2023-05-15T02:12:36;9.13;;;7.33;;
11807;SDS011;5961;42.640;23.380;2023-05-15T02:15:05;8.77;;;7.13;;
11807;SDS011;5961;42.640;23.380;2023-05-15T02:17:35;7.70;;;6.73;;
11807;SDS011;5961;42.640;23.380;2023-05-15T02:20:02;8.07;;;6.50;;
11807;SDS011;5961;42.640;23.380;2023-05-15T02:22:31;7.80;;;6.70;;
11807;SDS011;5961;42.640;23.380;2023-05-15T02:24:58;7.50;;;6.73;;
11807;SDS011;5961;42.640;23.380;2023-05-15T02:27:26;6.93;;;6.23;;
11807;SDS011;5961;42.640;23.380;2023-05-15T02:29:56;8.50;;;7.30;;
11807;SDS011;5961;42.640;23.380;2023-05-15T02:32:34;8.50;;;7.03;;
11807;SDS011;5961;42.640;23.380;2023-05-15T02:35:11;9.60;;;7.30;;
11807;SDS011;5961;42.640;23.380;2023-05-15T02:37:44;8.73;;;7.83;;
11807;SDS011;5961;42.640;23.380;2023-05-15T02:40:13;11.20;;;7.60;;
11807;SDS011;5961;42.640;23.380;2023-05-15T02:42:41;7.57;;;6.53;;
11807;SDS011;5961;42.640;23.380;2023-05-15T02:45:10;9.00;;;7.37;;
11807;SDS011;5961;42.640;23.380;2023-05-15T02:47:39;8.97;;;7.40;;
11807;SDS011;5961;42.640;23.380;2023-05-15T02:50:07;9.37;;;6.90;;
11807;SDS011;5961;42.640;23.380;2023-05-15T02:52:35;8.90;;;8.00;;
11807;SDS011;5961;42.640;23.380;2023-05-15T02:55:02;8.43;;;7.53;;
11807;SDS011;5961;42.640;23.380;2023-05-15T02:57:29;9.27;;;8.30;;
11807;SDS011;5961;42.640;23.380;2023-05-15T02:59:55;8.80;;;7.33;;
11807;SDS011;5961;42.640;23.380;2023-05-15T03:02:22;9.97;;;7.43;;
11807;SDS011;5961;42.640;23.380;2023-05-15T03:04:50;7.53;;;6.50;;
11807;SDS011;5961;42.640;23.380;2023-05-15T03:07:17;8.80;;;6.17;;
11807;SDS011;5961;42.640;23.380;2023-05-15T03:09:43;8.47;;;7.53;;
11807;SDS011;5961;42.640;23.380;2023-05-15T03:12:10;8.30;;;7.43;;
11807;SDS011;5961;42.640;23.380;2023-05-15T03:14:37;11.73;;;7.90;;
11807;SDS011;5961;42.640;23.380;2023-05-15T03:17:03;9.20;;;7.93;;
11807;SDS011;5961;42.640;23.380;2023-05-15T03:19:30;9.60;;;8.60;;
11807;SDS011;5961;42.640;23.380;2023-05-15T03:21:58;11.20;;;8.33;;
11807;SDS011;5961;42.640;23.380;2023-05-15T03:24:25;9.77;;;8.17;;
11807;SDS011;5961;42.640;23.380;2023-05-15T03:26:51;9.60;;;8.30;;
11807;SDS011;5961;42.640;23.380;2023-05-15T03:29:18;9.77;;;7.93;;
11807;SDS011;5961;42.640;23.380;2023-05-15T03:31:45;10.50;;;8.27;;
11807;SDS011;5961;42.640;23.380;2023-05-15T03:34:12;11.33;;;8.83;;
11807;SDS011;5961;42.640;23.380;2023-05-15T03:36:38;10.50;;;8.93;;
11807;SDS011;5961;42.640;23.380;2023-05-15T03:39:06;11.53;;;9.60;;
11807;SDS011;5961;42.640;23.380;2023-05-15T03:41:33;10.57;;;9.43;;
11807;SDS011;5961;42.640;23.380;2023-05-15T03:44:00;10.60;;;9.43;;
11807;SDS011;5961;42.640;23.380;2023-05-15T03:46:26;11.17;;;8.57;;
11807;SDS011;5961;42.640;23.380;2023-05-15T03:48:53;10.87;;;9.20;;
11807;SDS011;5961;42.640;23.380;2023-05-15T03:51:20;10.17;;;8.73;;
11807;SDS011;5961;42.640;23.380;2023-05-15T03:53:47;11.30;;;9.07;;
11807;SDS011;5961;42.640;23.380;2023-05-15T03:56:16;12.63;;;9.83;;
11807;SDS011;5961;42.640;23.380;2023-05-15T03:58:42;12.10;;;10.27;;
11807;SDS011;5961;42.640;23.380;2023-05-15T04:01:09;10.57;;;9.47;;
11807;SDS011;5961;42.640;23.380;2023-05-15T04:03:36;11.03;;;9.47;;
11807;SDS011;5961;42.640;23.380;2023-05-15T04:06:02;11.13;;;9.90;;
11807;SDS011;5961;42.640;23.380;2023-05-15T04:08:29;13.17;;;10.07;;
11807;SDS011;5961;42.640;23.380;2023-05-15T04:10:56;12.63;;;10.57;;
11807;SDS011;5961;42.640;23.380;2023-05-15T04:13:24;12.53;;;10.30;;
11807;SDS011;5961;42.640;23.380;2023-05-15T04:15:51;12.03;;;10.23;;
11807;SDS011;5961;42.640;23.380;2023-05-15T04:18:18;11.20;;;9.80;;
11807;SDS011;5961;42.640;23.380;2023-05-15T04:20:45;13.07;;;10.80;;
11807;SDS011;5961;42.640;23.380;2023-05-15T04:23:11;13.27;;;11.13;;
11807;SDS011;5961;42.640;23.380;2023-05-15T04:25:38;17.73;;;13.23;;
11807;SDS011;5961;42.640;23.380;2023-05-15T04:28:06;17.90;;;14.07;;
11807;SDS011;5961;42.640;23.380;2023-05-15T04:30:34;22.40;;;13.73;;
11807;SDS011;5961;42.640;23.380;2023-05-15T04:33:01;15.03;;;11.20;;
11807;SDS011;5961;42.640;23.380;2023-05-15T04:35:28;13.67;;;11.10;;
11807;SDS011;5961;42.640;23.380;2023-05-15T04:37:55;12.50;;;10.90;;
11807;SDS011;5961;42.640;23.380;2023-05-15T04:40:22;14.10;;;11.47;;
11807;SDS011;5961;42.640;23.380;2023-05-15T04:42:48;14.13;;;11.47;;
11807;SDS011;5961;42.640;23.380;2023-05-15T04:45:15;14.67;;;12.57;;
11807;SDS011;5961;42.640;23.380;2023-05-15T04:47:44;15.37;;;11.90;;
11807;SDS011;5961;42.640;23.380;2023-05-15T04:50:10;13.40;;;11.37;;
11807;SDS011;5961;42.640;23.380;2023-05-15T04:52:37;12.23;;;10.83;;
11807;SDS011;5961;42.640;23.380;2023-05-15T04:55:04;13.70;;;10.93;;
11807;SDS011;5961;42.640;23.380;2023-05-15T04:57:32;14.37;;;12.00;;
11807;SDS011;5961;42.640;23.380;2023-05-15T04:59:58;16.37;;;13.13;;
11807;SDS011;5961;42.640;23.380;2023-05-15T05:02:25;27.80;;;18.90;;
11807;SDS011;5961;42.640;23.380;2023-05-15T05:04:53;23.23;;;16.20;;
11807;SDS011;5961;42.640;23.380;2023-05-15T05:07:20;14.90;;;12.33;;
11807;SDS011;5961;42.640;23.380;2023-05-15T05:09:46;14.43;;;12.10;;
11807;SDS011;5961;42.640;23.380;2023-05-15T05:12:13;14.50;;;12.03;;
11807;SDS011;5961;42.640;23.380;2023-05-15T05:14:40;14.97;;;12.17;;
11807;SDS011;5961;42.640;23.380;2023-05-15T05:17:08;16.13;;;11.47;;
11807;SDS011;5961;42.640;23.380;2023-05-15T05:19:35;12.90;;;10.97;;
11807;SDS011;5961;42.640;23.380;2023-05-15T05:22:03;13.40;;;10.50;;
11807;SDS011;5961;42.640;23.380;2023-05-15T05:24:31;15.47;;;11.80;;
11807;SDS011;5961;42.640;23.380;2023-05-15T05:26:59;16.13;;;11.03;;
11807;SDS011;5961;42.640;23.380;2023-05-15T05:29:26;12.90;;;10.90;;
11807;SDS011;5961;42.640;23.380;2023-05-15T05:31:53;13.00;;;10.07;;
11807;SDS011;5961;42.640;23.380;2023-05-15T05:34:19;11.77;;;9.67;;
11807;SDS011;5961;42.640;23.380;2023-05-15T05:36:46;11.67;;;9.17;;
11807;SDS011;5961;42.640;23.380;2023-05-15T05:39:15;13.00;;;9.63;;
11807;SDS011;5961;42.640;23.380;2023-05-15T05:41:42;10.77;;;9.13;;
11807;SDS011;5961;42.640;23.380;2023-05-15T05:44:08;13.30;;;10.93;;
11807;SDS011;5961;42.640;23.380;2023-05-15T05:46:35;12.57;;;10.77;;
11807;SDS011;5961;42.640;23.380;2023-05-15T05:49:02;11.03;;;9.80;;
11807;SDS011;5961;42.640;23.380;2023-05-15T05:51:29;13.50;;;11.07;;
11807;SDS011;5961;42.640;23.380;2023-05-15T05:53:56;14.23;;;11.37;;
11807;SDS011;5961;42.640;23.380;2023-05-15T05:56:24;16.43;;;12.03;;
11807;SDS011;5961;42.640;23.380;2023-05-15T05:58:50;12.40;;;10.97;;
11807;SDS011;5961;42.640;23.380;2023-05-15T06:01:17;13.73;;;11.40;;
11807;SDS011;5961;42.640;23.380;2023-05-15T06:03:44;18.63;;;13.90;;
11807;SDS011;5961;42.640;23.380;2023-05-15T06:06:10;16.63;;;12.97;;
11807;SDS011;5961;42.640;23.380;2023-05-15T06:08:37;11.43;;;10.03;;
11807;SDS011;5961;42.640;23.380;2023-05-15T06:11:04;14.47;;;10.77;;
11807;SDS011;5961;42.640;23.380;2023-05-15T06:13:32;14.10;;;10.27;;
11807;SDS011;5961;42.640;23.380;2023-05-15T06:15:59;15.00;;;10.80;;
11807;SDS011;5961;42.640;23.380;2023-05-15T06:18:25;14.73;;;10.10;;
11807;SDS011;5961;42.640;23.380;2023-05-15T06:20:52;14.43;;;10.80;;
11807;SDS011;5961;42.640;23.380;2023-05-15T06:23:18;16.90;;;12.10;;
11807;SDS011;5961;42.640;23.380;2023-05-15T06:25:45;17.10;;;12.10;;
11807;SDS011;5961;42.640;23.380;2023-05-15T06:28:12;17.73;;;12.07;;
11807;SDS011;5961;42.640;23.380;2023-05-15T06:30:40;18.97;;;13.77;;
11807;SDS011;5961;42.640;23.380;2023-05-15T06:33:07;21.17;;;13.60;;
11807;SDS011;5961;42.640;23.380;2023-05-15T06:35:33;15.40;;;11.70;;
11807;SDS011;5961;42.640;23.380;2023-05-15T06:38:00;16.87;;;11.87;;
11807;SDS011;5961;42.640;23.380;2023-05-15T06:40:27;14.57;;;11.10;;
11807;SDS011;5961;42.640;23.380;2023-05-15T06:42:53;17.53;;;9.83;;
11807;SDS011;5961;42.640;23.380;2023-05-15T06:45:20;15.50;;;11.17;;
11807;SDS011;5961;42.640;23.380;2023-05-15T06:47:48;16.23;;;11.10;;
11807;SDS011;5961;42.640;23.380;2023-05-15T06:50:14;13.97;;;10.13;;
11807;SDS011;5961;42.640;23.380;2023-05-15T06:52:41;15.67;;;10.73;;
11807;SDS011;5961;42.640;23.380;2023-05-15T06:55:08;16.07;;;10.73;;
11807;SDS011;5961;42.640;23.380;2023-05-15T06:57:35;16.77;;;11.17;;
11807;SDS011;5961;42.640;23.380;2023-05-15T07:00:02;14.07;;;10.60;;
11807;SDS011;5961;42.640;23.380;2023-05-15T07:02:29;14.73;;;11.13;;
11807;SDS011;5961;42.640;23.380;2023-05-15T07:04:57;13.50;;;10.60;;
11807;SDS011;5961;42.640;23.380;2023-05-15T07:07:25;16.50;;;10.80;;
11807;SDS011;5961;42.640;23.380;2023-05-15T07:09:52;18.40;;;11.23;;
11807;SDS011;5961;42.640;23.380;2023-05-15T07:12:19;13.93;;;10.07;;
11807;SDS011;5961;42.640;23.380;2023-05-15T07:14:45;15.43;;;10.43;;
11807;SDS011;5961;42.640;23.380;2023-05-15T07:17:12;14.07;;;11.03;;
11807;SDS011;5961;42.640;23.380;2023-05-15T07:19:38;14.33;;;10.77;;
11807;SDS011;5961;42.640;23.380;2023-05-15T07:22:06;14.93;;;11.37;;
11807;SDS011;5961;42.640;23.380;2023-05-15T07:24:33;17.40;;;13.17;;
11807;SDS011;5961;42.640;23.380;2023-05-15T07:27:00;18.00;;;12.40;;
11807;SDS011;5961;42.640;23.380;2023-05-15T07:29:26;17.60;;;12.50;;
11807;SDS011;5961;42.640;23.380;2023-05-15T07:31:53;17.03;;;11.40;;
11807;SDS011;5961;42.640;23.380;2023-05-15T07:34:20;13.97;;;10.33;;
11807;SDS011;5961;42.640;23.380;2023-05-15T07:36:47;14.13;;;10.40;;
11807;SDS011;5961;42.640;23.380;2023-05-15T07:39:15;16.67;;;12.03;;
11807;SDS011;5961;42.640;23.380;2023-05-15T07:41:42;18.37;;;10.60;;
11807;SDS011;5961;42.640;23.380;2023-05-15T07:44:11;19.43;;;11.47;;
11807;SDS011;5961;42.640;23.380;2023-05-15T07:46:37;17.63;;;12.07;;
11807;SDS011;5961;42.640;23.380;2023-05-15T07:49:04;21.77;;;14.93;;
11807;SDS011;5961;42.640;23.380;2023-05-15T07:51:31;19.40;;;13.97;;
11807;SDS011;5961;42.640;23.380;2023-05-15T07:53:57;28.37;;;14.93;;
11807;SDS011;5961;42.640;23.380;2023-05-15T07:56:25;22.40;;;14.63;;
11807;SDS011;5961;42.640;23.380;2023-05-15T07:58:52;20.50;;;14.03;;
11807;SDS011;5961;42.640;23.380;2023-05-15T08:01:19;17.53;;;13.27;;
11807;SDS011;5961;42.640;23.380;2023-05-15T08:03:45;18.97;;;13.13;;
11807;SDS011;5961;42.640;23.380;2023-05-15T08:06:12;16.63;;;12.67;;
11807;SDS011;5961;42.640;23.380;2023-05-15T08:08:41;22.17;;;13.43;;
11807;SDS011;5961;42.640;23.380;2023-05-15T08:11:07;21.57;;;14.70;;
11807;SDS011;5961;42.640;23.380;2023-05-15T08:13:36;25.57;;;15.33;;
11807;SDS011;5961;42.640;23.380;2023-05-15T08:16:02;22.60;;;15.50;;
11807;SDS011;5961;42.640;23.380;2023-05-15T08:18:29;22.63;;;15.97;;
11807;SDS011;5961;42.640;23.380;2023-05-15T08:20:56;24.20;;;15.47;;
11807;SDS011;5961;42.640;23.380;2023-05-15T08:23:23;21.97;;;14.40;;
11807;SDS011;5961;42.640;23.380;2023-05-15T08:25:49;21.23;;;13.50;;
11807;SDS011;5961;42.640;23.380;2023-05-15T08:28:16;24.17;;;15.27;;
11807;SDS011;5961;42.640;23.380;2023-05-15T08:30:44;20.87;;;14.13;;
11807;SDS011;5961;42.640;23.380;2023-05-15T08:33:11;21.40;;;14.37;;
11807;SDS011;5961;42.640;23.380;2023-05-15T08:35:37;17.23;;;13.10;;
11807;SDS011;5961;42.640;23.380;2023-05-15T08:38:04;16.97;;;13.10;;
11807;SDS011;5961;42.640;23.380;2023-05-15T08:40:31;18.90;;;13.97;;
11807;SDS011;5961;42.640;23.380;2023-05-15T08:42:59;19.87;;;13.70;;
11807;SDS011;5961;42.640;23.380;2023-05-15T08:45:28;16.87;;;12.60;;
11807;SDS011;5961;42.640;23.380;2023-05-15T08:47:56;16.23;;;12.47;;
11807;SDS011;5961;42.640;23.380;2023-05-15T08:50:24;20.60;;;12.53;;
11807;SDS011;5961;42.640;23.380;2023-05-15T08:52:51;19.27;;;13.63;;
11807;SDS011;5961;42.640;23.380;2023-05-15T08:55:22;16.80;;;12.20;;
11807;SDS011;5961;42.640;23.380;2023-05-15T08:57:49;17.37;;;12.93;;
11807;SDS011;5961;42.640;23.380;2023-05-15T09:00:16;14.63;;;11.90;;
11807;SDS011;5961;42.640;23.380;2023-05-15T09:02:45;16.40;;;12.30;;
11807;SDS011;5961;42.640;23.380;2023-05-15T09:05:13;16.13;;;12.00;;
11807;SDS011;5961;42.640;23.380;2023-05-15T09:07:40;16.50;;;12.00;;
11807;SDS011;5961;42.640;23.380;2023-05-15T09:10:09;16.67;;;12.73;;
11807;SDS011;5961;42.640;23.380;2023-05-15T09:12:36;18.40;;;13.97;;
11807;SDS011;5961;42.640;23.380;2023-05-15T09:15:08;18.27;;;14.30;;
11807;SDS011;5961;42.640;23.380;2023-05-15T09:17:35;19.87;;;13.93;;
11807;SDS011;5961;42.640;23.380;2023-05-15T09:20:02;21.30;;;15.30;;
11807;SDS011;5961;42.640;23.380;2023-05-15T09:22:33;16.20;;;13.33;;
11807;SDS011;5961;42.640;23.380;2023-05-15T09:25:01;21.80;;;14.13;;
11807;SDS011;5961;42.640;23.380;2023-05-15T09:27:28;20.13;;;14.47;;
11807;SDS011;5961;42.640;23.380;2023-05-15T09:29:57;21.23;;;15.10;;
11807;SDS011;5961;42.640;23.380;2023-05-15T09:32:34;21.90;;;14.17;;
11807;SDS011;5961;42.640;23.380;2023-05-15T09:35:02;20.13;;;14.10;;
11807;SDS011;5961;42.640;23.380;2023-05-15T09:37:30;20.13;;;13.83;;
11807;SDS011;5961;42.640;23.380;2023-05-15T09:40:09;20.87;;;13.57;;
11807;SDS011;5961;42.640;23.380;2023-05-15T09:42:37;20.70;;;13.70;;
11807;SDS011;5961;42.640;23.380;2023-05-15T09:45:04;19.27;;;13.30;;
11807;SDS011;5961;42.640;23.380;2023-05-15T09:47:31;19.33;;;13.37;;
11807;SDS011;5961;42.640;23.380;2023-05-15T09:49:59;20.67;;;14.53;;
11807;SDS011;5961;42.640;23.380;2023-05-15T09:52:26;19.47;;;14.43;;
11807;SDS011;5961;42.640;23.380;2023-05-15T09:54:54;23.50;;;18.47;;
11807;SDS011;5961;42.640;23.380;2023-05-15T09:57:22;19.90;;;13.60;;
11807;SDS011;5961;42.640;23.380;2023-05-15T09:59:49;18.43;;;13.10;;
11807;SDS011;5961;42.640;23.380;2023-05-15T10:02:22;20.83;;;14.53;;
11807;SDS011;5961;42.640;23.380;2023-05-15T10:04:55;19.10;;;12.67;;
11807;SDS011;5961;42.640;23.380;2023-05-15T10:07:29;31.80;;;17.13;;
11807;SDS011;5961;42.640;23.380;2023-05-15T10:09:56;16.70;;;13.40;;
11807;SDS011;5961;42.640;23.380;2023-05-15T10:12:25;19.37;;;14.47;;
11807;SDS011;5961;42.640;23.380;2023-05-15T10:14:53;25.23;;;15.40;;
11807;SDS011;5961;42.640;23.380;2023-05-15T10:17:22;21.47;;;14.93;;
11807;SDS011;5961;42.640;23.380;2023-05-15T10:19:49;24.07;;;16.60;;
11807;SDS011;5961;42.640;23.380;2023-05-15T10:22:18;21.60;;;13.97;;
11807;SDS011;5961;42.640;23.380;2023-05-15T10:24:48;18.97;;;13.70;;
11807;SDS011;5961;42.640;23.380;2023-05-15T10:27:24;25.07;;;13.93;;
11807;SDS011;5961;42.640;23.380;2023-05-15T10:29:52;18.80;;;12.83;;
11807;SDS011;5961;42.640;23.380;2023-05-15T10:32:21;15.37;;;11.97;;
11807;SDS011;5961;42.640;23.380;2023-05-15T10:34:49;14.10;;;11.93;;
11807;SDS011;5961;42.640;23.380;2023-05-15T10:37:17;22.00;;;13.23;;
11807;SDS011;5961;42.640;23.380;2023-05-15T10:39:44;18.00;;;12.70;;
11807;SDS011;5961;42.640;23.380;2023-05-15T10:42:13;16.80;;;12.40;;
11807;SDS011;5961;42.640;23.380;2023-05-15T10:44:42;19.30;;;13.47;;
11807;SDS011;5961;42.640;23.380;2023-05-15T10:47:09;18.07;;;12.17;;
11807;SDS011;5961;42.640;23.380;2023-05-15T10:49:36;16.33;;;10.70;;
11807;SDS011;5961;42.640;23.380;2023-05-15T10:52:03;16.73;;;11.00;;
11807;SDS011;5961;42.640;23.380;2023-05-15T10:54:30;13.10;;;10.63;;
11807;SDS011;5961;42.640;23.380;2023-05-15T10:56:57;15.13;;;10.97;;
11807;SDS011;5961;42.640;23.380;2023-05-15T10:59:29;18.27;;;11.37;;
11807;SDS011;5961;42.640;23.380;2023-05-15T11:01:58;19.60;;;9.83;;
11807;SDS011;5961;42.640;23.380;2023-05-15T11:04:44;16.53;;;11.37;;
11807;SDS011;5961;42.640;23.380;2023-05-15T11:07:12;15.03;;;11.20;;
11807;SDS011;5961;42.640;23.380;2023-05-15T11:09:40;17.83;;;11.27;;
11807;SDS011;5961;42.640;23.380;2023-05-15T11:12:07;18.17;;;10.23;;
11807;SDS011;5961;42.640;23.380;2023-05-15T11:14:36;21.97;;;11.67;;
11807;SDS011;5961;42.640;23.380;2023-05-15T11:17:07;16.37;;;11.17;;
11807;SDS011;5961;42.640;23.380;2023-05-15T11:19:35;20.07;;;11.20;;
11807;SDS011;5961;42.640;23.380;2023-05-15T11:22:20;17.33;;;11.53;;
11807;SDS011;5961;42.640;23.380;2023-05-15T11:24:51;14.67;;;10.63;;
11807;SDS011;5961;42.640;23.380;2023-05-15T11:27:20;14.13;;;10.70;;
11807;SDS011;5961;42.640;23.380;2023-05-15T11:30:07;19.00;;;11.67;;
11807;SDS011;5961;42.640;23.380;2023-05-15T11:32:47;23.27;;;12.80;;
11807;SDS011;5961;42.640;23.380;2023-05-15T11:35:20;19.43;;;13.73;;
11807;SDS011;5961;42.640;23.380;2023-05-15T11:37:49;20.63;;;13.97;;
11807;SDS011;5961;42.640;23.380;2023-05-15T11:40:18;20.53;;;13.67;;
11807;SDS011;5961;42.640;23.380;2023-05-15T11:43:02;23.87;;;13.47;;
11807;SDS011;5961;42.640;23.380;2023-05-15T11:45:31;21.27;;;16.27;;
11807;SDS011;5961;42.640;23.380;2023-05-15T11:48:01;24.77;;;18.20;;
11807;SDS011;5961;42.640;23.380;2023-05-15T11:50:30;18.87;;;13.23;;
11807;SDS011;5961;42.640;23.380;2023-05-15T11:53:00;25.63;;;17.43;;
11807;SDS011;5961;42.640;23.380;2023-05-15T11:55:28;23.50;;;15.40;;
11807;SDS011;5961;42.640;23.380;2023-05-15T11:57:56;25.60;;;14.27;;
11807;SDS011;5961;42.640;23.380;2023-05-15T12:00:23;19.60;;;14.07;;
11807;SDS011;5961;42.640;23.380;2023-05-15T12:02:50;24.40;;;16.53;;
11807;SDS011;5961;42.640;23.380;2023-05-15T12:05:18;18.83;;;13.07;;
11807;SDS011;5961;42.640;23.380;2023-05-15T12:07:45;16.80;;;11.33;;
11807;SDS011;5961;42.640;23.380;2023-05-15T12:10:12;22.60;;;12.07;;
11807;SDS011;5961;42.640;23.380;2023-05-15T12:12:39;19.03;;;12.90;;
11807;SDS011;5961;42.640;23.380;2023-05-15T12:15:07;16.00;;;12.40;;
11807;SDS011;5961;42.640;23.380;2023-05-15T12:17:36;18.73;;;12.97;;
11807;SDS011;5961;42.640;23.380;2023-05-15T12:20:03;18.23;;;14.37;;
11807;SDS011;5961;42.640;23.380;2023-05-15T12:22:36;18.97;;;14.53;;
11807;SDS011;5961;42.640;23.380;2023-05-15T12:25:04;18.90;;;13.77;;
11807;SDS011;5961;42.640;23.380;2023-05-15T12:27:32;21.53;;;14.00;;
11807;SDS011;5961;42.640;23.380;2023-05-15T12:29:59;21.60;;;13.60;;
11807;SDS011;5961;42.640;23.380;2023-05-15T12:32:27;16.20;;;12.20;;
11807;SDS011;5961;42.640;23.380;2023-05-15T12:34:56;21.13;;;12.80;;
11807;SDS011;5961;42.640;23.380;2023-05-15T12:37:23;19.13;;;12.20;;
11807;SDS011;5961;42.640;23.380;2023-05-15T12:39:55;21.10;;;15.10;;
11807;SDS011;5961;42.640;23.380;2023-05-15T12:42:24;22.60;;;14.33;;
11807;SDS011;5961;42.640;23.380;2023-05-15T12:44:51;21.83;;;15.23;;
11807;SDS011;5961;42.640;23.380;2023-05-15T12:47:21;18.83;;;14.97;;
11807;SDS011;5961;42.640;23.380;2023-05-15T12:49:49;30.63;;;21.30;;
11807;SDS011;5961;42.640;23.380;2023-05-15T12:52:15;22.57;;;15.13;;
11807;SDS011;5961;42.640;23.380;2023-05-15T12:54:42;17.60;;;12.87;;
11807;SDS011;5961;42.640;23.380;2023-05-15T12:57:11;21.67;;;14.07;;
11807;SDS011;5961;42.640;23.380;2023-05-15T12:59:39;23.27;;;13.63;;
11807;SDS011;5961;42.640;23.380;2023-05-15T13:02:08;21.47;;;15.13;;
11807;SDS011;5961;42.640;23.380;2023-05-15T13:04:36;19.30;;;11.83;;
11807;SDS011;5961;42.640;23.380;2023-05-15T13:07:03;18.70;;;13.67;;
11807;SDS011;5961;42.640;23.380;2023-05-15T13:09:30;18.47;;;12.43;;
11807;SDS011;5961;42.640;23.380;2023-05-15T13:11:57;19.03;;;12.30;;
11807;SDS011;5961;42.640;23.380;2023-05-15T13:14:28;28.90;;;18.40;;
11807;SDS011;5961;42.640;23.380;2023-05-15T13:16:57;18.23;;;12.13;;
11807;SDS011;5961;42.640;23.380;2023-05-15T13:19:24;15.37;;;13.63;;
11807;SDS011;5961;42.640;23.380;2023-05-15T13:21:51;23.37;;;15.47;;
11807;SDS011;5961;42.640;23.380;2023-05-15T13:24:18;17.80;;;13.27;;
11807;SDS011;5961;42.640;23.380;2023-05-15T13:26:45;23.30;;;14.20;;
11807;SDS011;5961;42.640;23.380;2023-05-15T13:29:11;16.67;;;9.47;;
11807;SDS011;5961;42.640;23.380;2023-05-15T13:31:39;19.27;;;12.63;;
11807;SDS011;5961;42.640;23.380;2023-05-15T13:34:06;12.40;;;9.80;;
11807;SDS011;5961;42.640;23.380;2023-05-15T13:36:33;12.07;;;9.30;;
11807;SDS011;5961;42.640;23.380;2023-05-15T13:39:00;12.47;;;8.63;;
11807;SDS011;5961;42.640;23.380;2023-05-15T13:41:27;15.90;;;10.67;;
11807;SDS011;5961;42.640;23.380;2023-05-15T13:43:54;20.37;;;11.03;;
11807;SDS011;5961;42.640;23.380;2023-05-15T13:46:21;13.87;;;8.20;;
11807;SDS011;5961;42.640;23.380;2023-05-15T13:48:49;15.37;;;9.23;;
11807;SDS011;5961;42.640;23.380;2023-05-15T13:51:15;19.10;;;10.03;;
11807;SDS011;5961;42.640;23.380;2023-05-15T13:53:42;19.33;;;10.20;;
11807;SDS011;5961;42.640;23.380;2023-05-15T13:56:08;14.20;;;9.70;;
11807;SDS011;5961;42.640;23.380;2023-05-15T13:58:35;17.57;;;10.03;;
11807;SDS011;5961;42.640;23.380;2023-05-15T14:01:03;15.93;;;9.73;;
11807;SDS011;5961;42.640;23.380;2023-05-15T14:03:31;15.10;;;9.50;;
11807;SDS011;5961;42.640;23.380;2023-05-15T14:05:59;23.53;;;10.10;;
11807;SDS011;5961;42.640;23.380;2023-05-15T14:08:26;17.90;;;10.10;;
11807;SDS011;5961;42.640;23.380;2023-05-15T14:10:53;14.00;;;9.90;;
11807;SDS011;5961;42.640;23.380;2023-05-15T14:13:19;17.47;;;9.27;;
11807;SDS011;5961;42.640;23.380;2023-05-15T14:15:46;15.20;;;9.00;;
11807;SDS011;5961;42.640;23.380;2023-05-15T14:18:13;14.80;;;9.00;;
11807;SDS011;5961;42.640;23.380;2023-05-15T14:20:40;16.37;;;9.37;;
11807;SDS011;5961;42.640;23.380;2023-05-15T14:23:08;19.97;;;11.17;;
11807;SDS011;5961;42.640;23.380;2023-05-15T14:25:35;14.07;;;8.10;;
11807;SDS011;5961;42.640;23.380;2023-05-15T14:28:01;14.30;;;7.70;;
11807;SDS011;5961;42.640;23.380;2023-05-15T14:30:28;11.20;;;8.27;;
11807;SDS011;5961;42.640;23.380;2023-05-15T14:32:55;12.00;;;8.53;;
11807;SDS011;5961;42.640;23.380;2023-05-15T14:35:21;13.43;;;8.33;;
11807;SDS011;5961;42.640;23.380;2023-05-15T14:37:48;14.83;;;7.77;;